sensor_id;sensor_type;location;lat;lon;timestamp;temperature;humidity
21047;DHT22;10682;50.874;3.656;2024-03-02T00:00:40;6.30;99.90
21047;DHT22;10682;50.874;3.656;2024-03-02T00:03:07;6.30;99.90
21047;DHT22;10682;50.874;3.656;2024-03-02T00:05:36;6.30;99.90
21047;DHT22;10682;50.874;3.656;2024-03-02T00:08:05;6.30;99.90
21047;DHT22;10682;50.874;3.656;2024-03-02T00:10:40;6.30;99.90
21047;DHT22;10682;50.874;3.656;2024-03-02T00:13:08;6.30;99.90
21047;DHT22;10682;50.874;3.656;2024-03-02T00:15:45;6.30;99.90
21047;DHT22;10682;50.874;3.656;2024-03-02T00:21:30;6.30;99.90
21047;DHT22;10682;50.874;3.656;2024-03-02T00:24:34;6.30;99.90
21047;DHT22;10682;50.874;3.656;2024-03-02T00:27:04;6.40;99.90
21047;DHT22;10682;50.874;3.656;2024-03-02T00:29:32;6.40;99.90
21047;DHT22;10682;50.874;3.656;2024-03-02T00:31:59;6.30;99.90
21047;DHT22;10682;50.874;3.656;2024-03-02T00:34:28;6.30;99.90
21047;DHT22;10682;50.874;3.656;2024-03-02T00:36:58;6.30;99.90
21047;DHT22;10682;50.874;3.656;2024-03-02T00:39:26;6.30;99.90
21047;DHT22;10682;50.874;3.656;2024-03-02T00:41:53;6.40;99.90
21047;DHT22;10682;50.874;3.656;2024-03-02T00:44:25;6.40;99.90
21047;DHT22;10682;50.874;3.656;2024-03-02T00:46:53;6.40;99.90
21047;DHT22;10682;50.874;3.656;2024-03-02T00:49:24;6.40;99.90
21047;DHT22;10682;50.874;3.656;2024-03-02T00:51:53;6.30;99.90
21047;DHT22;10682;50.874;3.656;2024-03-02T00:54:23;6.30;99.90
21047;DHT22;10682;50.874;3.656;2024-03-02T00:56:53;6.40;99.90
21047;DHT22;10682;50.874;3.656;2024-03-02T00:59:25;6.40;99.90
21047;DHT22;10682;50.874;3.656;2024-03-02T01:01:52;6.40;99.90
21047;DHT22;10682;50.874;3.656;2024-03-02T01:04:20;6.40;99.90
21047;DHT22;10682;50.874;3.656;2024-03-02T01:06:48;6.40;99.90
21047;DHT22;10682;50.874;3.656;2024-03-02T01:09:15;6.40;99.90
21047;DHT22;10682;50.874;3.656;2024-03-02T01:11:43;6.40;99.90
21047;DHT22;10682;50.874;3.656;2024-03-02T01:14:10;6.40;99.90
21047;DHT22;10682;50.874;3.656;2024-03-02T01:16:37;6.40;99.90
21047;DHT22;10682;50.874;3.656;2024-03-02T01:19:04;6.40;99.90
21047;DHT22;10682;50.874;3.656;2024-03-02T01:21:32;6.40;99.90
21047;DHT22;10682;50.874;3.656;2024-03-02T01:23:59;6.40;99.90
21047;DHT22;10682;50.874;3.656;2024-03-02T01:26:26;6.40;99.90
21047;DHT22;10682;50.874;3.656;2024-03-02T01:28:53;6.40;99.90
21047;DHT22;10682;50.874;3.656;2024-03-02T01:31:20;6.40;99.90
21047;DHT22;10682;50.874;3.656;2024-03-02T01:33:47;6.30;99.90
21047;DHT22;10682;50.874;3.656;2024-03-02T01:36:14;6.30;99.90
21047;DHT22;10682;50.874;3.656;2024-03-02T01:38:41;6.20;99.90
21047;DHT22;10682;50.874;3.656;2024-03-02T01:41:09;6.30;99.90
21047;DHT22;10682;50.874;3.656;2024-03-02T01:43:36;6.30;99.90
21047;DHT22;10682;50.874;3.656;2024-03-02T01:46:07;6.20;99.90
21047;DHT22;10682;50.874;3.656;2024-03-02T01:48:34;6.20;99.90
21047;DHT22;10682;50.874;3.656;2024-03-02T01:51:01;6.20;99.90
21047;DHT22;10682;50.874;3.656;2024-03-02T01:53:29;6.20;99.90
21047;DHT22;10682;50.874;3.656;2024-03-02T01:55:56;6.20;99.90
21047;DHT22;10682;50.874;3.656;2024-03-02T01:58:24;6.20;99.90
21047;DHT22;10682;50.874;3.656;2024-03-02T02:00:51;6.20;99.90
21047;DHT22;10682;50.874;3.656;2024-03-02T02:06:56;6.20;99.90
21047;DHT22;10682;50.874;3.656;2024-03-02T02:09:35;6.20;99.90
21047;DHT22;10682;50.874;3.656;2024-03-02T02:12:03;6.20;99.90
21047;DHT22;10682;50.874;3.656;2024-03-02T02:14:33;6.30;99.90
21047;DHT22;10682;50.874;3.656;2024-03-02T02:17:00;6.20;99.90
21047;DHT22;10682;50.874;3.656;2024-03-02T02:19:27;6.20;99.90
21047;DHT22;10682;50.874;3.656;2024-03-02T02:21:55;6.20;99.90
21047;DHT22;10682;50.874;3.656;2024-03-02T02:24:22;6.20;99.90
21047;DHT22;10682;50.874;3.656;2024-03-02T02:26:49;6.20;99.90
21047;DHT22;10682;50.874;3.656;2024-03-02T02:29:16;6.20;99.90
21047;DHT22;10682;50.874;3.656;2024-03-02T02:31:44;6.10;99.90
21047;DHT22;10682;50.874;3.656;2024-03-02T02:34:11;6.20;99.90
21047;DHT22;10682;50.874;3.656;2024-03-02T02:36:39;6.20;99.90
21047;DHT22;10682;50.874;3.656;2024-03-02T02:39:13;6.30;99.90
21047;DHT22;10682;50.874;3.656;2024-03-02T02:41:41;6.30;99.90
21047;DHT22;10682;50.874;3.656;2024-03-02T02:44:08;6.30;99.90
21047;DHT22;10682;50.874;3.656;2024-03-02T02:46:38;6.30;99.90
21047;DHT22;10682;50.874;3.656;2024-03-02T02:49:06;6.30;99.90
21047;DHT22;10682;50.874;3.656;2024-03-02T02:51:33;6.30;99.90
21047;DHT22;10682;50.874;3.656;2024-03-02T02:54:00;6.20;99.90
21047;DHT22;10682;50.874;3.656;2024-03-02T02:56:27;6.20;99.90
21047;DHT22;10682;50.874;3.656;2024-03-02T02:58:54;6.20;99.90
21047;DHT22;10682;50.874;3.656;2024-03-02T03:01:21;6.10;99.90
21047;DHT22;10682;50.874;3.656;2024-03-02T03:03:49;6.10;99.90
21047;DHT22;10682;50.874;3.656;2024-03-02T03:06:16;6.00;99.90
21047;DHT22;10682;50.874;3.656;2024-03-02T03:08:43;6.00;99.90
21047;DHT22;10682;50.874;3.656;2024-03-02T03:11:10;6.00;99.90
21047;DHT22;10682;50.874;3.656;2024-03-02T03:13:38;5.90;99.90
21047;DHT22;10682;50.874;3.656;2024-03-02T03:16:05;5.90;99.90
21047;DHT22;10682;50.874;3.656;2024-03-02T03:18:33;5.90;99.90
21047;DHT22;10682;50.874;3.656;2024-03-02T03:21:00;5.90;99.90
21047;DHT22;10682;50.874;3.656;2024-03-02T03:23:27;5.80;99.90
21047;DHT22;10682;50.874;3.656;2024-03-02T03:25:54;5.80;99.90
21047;DHT22;10682;50.874;3.656;2024-03-02T03:28:21;5.80;99.90
21047;DHT22;10682;50.874;3.656;2024-03-02T03:30:48;5.80;99.90
21047;DHT22;10682;50.874;3.656;2024-03-02T03:33:16;5.80;99.90
21047;DHT22;10682;50.874;3.656;2024-03-02T03:35:44;5.80;99.90
21047;DHT22;10682;50.874;3.656;2024-03-02T03:38:11;5.80;99.90
21047;DHT22;10682;50.874;3.656;2024-03-02T03:40:38;5.80;99.90
21047;DHT22;10682;50.874;3.656;2024-03-02T03:43:05;5.80;99.90
21047;DHT22;10682;50.874;3.656;2024-03-02T03:45:32;5.80;99.90
21047;DHT22;10682;50.874;3.656;2024-03-02T03:47:59;5.80;99.90
21047;DHT22;10682;50.874;3.656;2024-03-02T03:50:27;5.80;99.90
21047;DHT22;10682;50.874;3.656;2024-03-02T03:52:54;5.90;99.90
21047;DHT22;10682;50.874;3.656;2024-03-02T03:55:21;5.90;99.90
21047;DHT22;10682;50.874;3.656;2024-03-02T03:57:48;5.90;99.90
21047;DHT22;10682;50.874;3.656;2024-03-02T04:00:15;5.80;99.90
21047;DHT22;10682;50.874;3.656;2024-03-02T04:02:42;5.90;99.90
21047;DHT22;10682;50.874;3.656;2024-03-02T04:05:09;5.80;99.90
21047;DHT22;10682;50.874;3.656;2024-03-02T04:07:38;5.80;99.90
21047;DHT22;10682;50.874;3.656;2024-03-02T04:10:09;5.80;99.90
21047;DHT22;10682;50.874;3.656;2024-03-02T04:12:36;5.80;99.90
21047;DHT22;10682;50.874;3.656;2024-03-02T04:15:07;5.80;99.90
21047;DHT22;10682;50.874;3.656;2024-03-02T04:17:35;5.80;99.90
21047;DHT22;10682;50.874;3.656;2024-03-02T04:20:03;5.80;99.90
21047;DHT22;10682;50.874;3.656;2024-03-02T04:22:33;5.80;99.90
21047;DHT22;10682;50.874;3.656;2024-03-02T04:25:01;5.80;99.90
21047;DHT22;10682;50.874;3.656;2024-03-02T04:27:29;5.80;99.90
21047;DHT22;10682;50.874;3.656;2024-03-02T04:29:56;5.80;99.90
21047;DHT22;10682;50.874;3.656;2024-03-02T04:32:23;5.80;99.90
21047;DHT22;10682;50.874;3.656;2024-03-02T04:34:50;5.80;99.90
21047;DHT22;10682;50.874;3.656;2024-03-02T04:37:18;5.80;99.90
21047;DHT22;10682;50.874;3.656;2024-03-02T04:39:45;5.80;99.90
21047;DHT22;10682;50.874;3.656;2024-03-02T04:42:12;5.70;99.90
21047;DHT22;10682;50.874;3.656;2024-03-02T04:44:39;5.60;99.90
21047;DHT22;10682;50.874;3.656;2024-03-02T04:47:06;5.60;99.90
21047;DHT22;10682;50.874;3.656;2024-03-02T04:49:33;5.50;99.90
21047;DHT22;10682;50.874;3.656;2024-03-02T04:52:00;5.50;99.90
21047;DHT22;10682;50.874;3.656;2024-03-02T04:54:28;5.50;99.90
21047;DHT22;10682;50.874;3.656;2024-03-02T04:56:55;5.50;99.90
21047;DHT22;10682;50.874;3.656;2024-03-02T04:59:22;5.50;99.90
21047;DHT22;10682;50.874;3.656;2024-03-02T05:01:49;5.50;99.90
21047;DHT22;10682;50.874;3.656;2024-03-02T05:04:16;5.50;99.90
21047;DHT22;10682;50.874;3.656;2024-03-02T05:06:43;5.50;99.90
21047;DHT22;10682;50.874;3.656;2024-03-02T05:09:10;5.50;99.90
21047;DHT22;10682;50.874;3.656;2024-03-02T05:11:37;5.50;99.90
21047;DHT22;10682;50.874;3.656;2024-03-02T05:14:05;5.50;99.90
21047;DHT22;10682;50.874;3.656;2024-03-02T05:16:36;5.50;99.90
21047;DHT22;10682;50.874;3.656;2024-03-02T05:19:05;5.50;99.90
21047;DHT22;10682;50.874;3.656;2024-03-02T05:21:35;5.60;99.90
21047;DHT22;10682;50.874;3.656;2024-03-02T05:24:02;5.50;99.90
21047;DHT22;10682;50.874;3.656;2024-03-02T05:26:30;5.50;99.90
21047;DHT22;10682;50.874;3.656;2024-03-02T05:28:57;5.50;99.90
21047;DHT22;10682;50.874;3.656;2024-03-02T05:31:24;5.50;99.90
21047;DHT22;10682;50.874;3.656;2024-03-02T05:33:51;5.60;99.90
21047;DHT22;10682;50.874;3.656;2024-03-02T05:36:23;5.60;99.90
21047;DHT22;10682;50.874;3.656;2024-03-02T05:38:50;5.60;99.90
21047;DHT22;10682;50.874;3.656;2024-03-02T05:41:18;5.60;99.90
21047;DHT22;10682;50.874;3.656;2024-03-02T05:43:45;5.60;99.90
21047;DHT22;10682;50.874;3.656;2024-03-02T05:46:12;5.60;99.90
21047;DHT22;10682;50.874;3.656;2024-03-02T05:48:39;5.60;99.90
21047;DHT22;10682;50.874;3.656;2024-03-02T05:51:06;5.60;99.90
21047;DHT22;10682;50.874;3.656;2024-03-02T05:53:33;5.50;99.90
21047;DHT22;10682;50.874;3.656;2024-03-02T05:56:00;5.60;99.90
21047;DHT22;10682;50.874;3.656;2024-03-02T05:58:31;5.60;99.90
21047;DHT22;10682;50.874;3.656;2024-03-02T06:01:18;5.60;99.90
21047;DHT22;10682;50.874;3.656;2024-03-02T06:03:45;5.60;99.90
21047;DHT22;10682;50.874;3.656;2024-03-02T06:06:12;5.60;99.90
21047;DHT22;10682;50.874;3.656;2024-03-02T06:08:40;5.60;99.90
21047;DHT22;10682;50.874;3.656;2024-03-02T06:11:07;5.60;99.90
21047;DHT22;10682;50.874;3.656;2024-03-02T06:13:34;5.50;99.90
21047;DHT22;10682;50.874;3.656;2024-03-02T06:16:01;5.50;99.90
21047;DHT22;10682;50.874;3.656;2024-03-02T06:18:28;5.60;99.90
21047;DHT22;10682;50.874;3.656;2024-03-02T06:20:55;5.60;99.90
21047;DHT22;10682;50.874;3.656;2024-03-02T06:23:23;5.60;99.90
21047;DHT22;10682;50.874;3.656;2024-03-02T06:25:50;5.60;99.90
21047;DHT22;10682;50.874;3.656;2024-03-02T06:28:17;5.50;99.90
21047;DHT22;10682;50.874;3.656;2024-03-02T06:30:44;5.60;99.90
21047;DHT22;10682;50.874;3.656;2024-03-02T06:33:11;5.60;99.90
21047;DHT22;10682;50.874;3.656;2024-03-02T06:35:39;5.60;99.90
21047;DHT22;10682;50.874;3.656;2024-03-02T06:38:06;5.50;99.90
21047;DHT22;10682;50.874;3.656;2024-03-02T06:40:33;5.60;99.90
21047;DHT22;10682;50.874;3.656;2024-03-02T06:43:00;5.60;99.90
21047;DHT22;10682;50.874;3.656;2024-03-02T06:45:28;5.50;99.90
21047;DHT22;10682;50.874;3.656;2024-03-02T06:47:57;5.50;99.90
21047;DHT22;10682;50.874;3.656;2024-03-02T06:50:24;5.50;99.90
21047;DHT22;10682;50.874;3.656;2024-03-02T06:52:51;5.50;99.90
21047;DHT22;10682;50.874;3.656;2024-03-02T06:55:18;5.50;99.90
21047;DHT22;10682;50.874;3.656;2024-03-02T06:57:45;5.50;99.90
21047;DHT22;10682;50.874;3.656;2024-03-02T07:00:13;5.60;99.90
21047;DHT22;10682;50.874;3.656;2024-03-02T07:02:40;5.60;99.90
21047;DHT22;10682;50.874;3.656;2024-03-02T07:05:11;5.60;99.90
21047;DHT22;10682;50.874;3.656;2024-03-02T07:07:38;5.70;99.90
21047;DHT22;10682;50.874;3.656;2024-03-02T07:10:05;5.80;99.90
21047;DHT22;10682;50.874;3.656;2024-03-02T07:12:34;5.80;99.90
21047;DHT22;10682;50.874;3.656;2024-03-02T07:15:02;5.90;99.90
21047;DHT22;10682;50.874;3.656;2024-03-02T07:17:30;5.90;99.90
21047;DHT22;10682;50.874;3.656;2024-03-02T07:19:58;5.90;99.90
21047;DHT22;10682;50.874;3.656;2024-03-02T07:22:25;6.00;99.90
21047;DHT22;10682;50.874;3.656;2024-03-02T07:24:52;6.00;99.90
21047;DHT22;10682;50.874;3.656;2024-03-02T07:27:19;6.20;99.90
21047;DHT22;10682;50.874;3.656;2024-03-02T07:29:47;6.20;99.90
21047;DHT22;10682;50.874;3.656;2024-03-02T07:32:14;6.30;99.90
21047;DHT22;10682;50.874;3.656;2024-03-02T07:34:42;6.30;99.90
21047;DHT22;10682;50.874;3.656;2024-03-02T07:37:09;6.40;99.90
21047;DHT22;10682;50.874;3.656;2024-03-02T07:39:37;6.50;99.90
21047;DHT22;10682;50.874;3.656;2024-03-02T07:42:04;6.50;99.90
21047;DHT22;10682;50.874;3.656;2024-03-02T07:44:37;6.60;99.90
21047;DHT22;10682;50.874;3.656;2024-03-02T07:47:06;6.70;99.90
21047;DHT22;10682;50.874;3.656;2024-03-02T07:49:34;6.70;99.90
21047;DHT22;10682;50.874;3.656;2024-03-02T07:52:02;6.80;99.90
21047;DHT22;10682;50.874;3.656;2024-03-02T07:54:29;6.90;99.90
21047;DHT22;10682;50.874;3.656;2024-03-02T07:56:56;6.90;99.90
21047;DHT22;10682;50.874;3.656;2024-03-02T07:59:24;7.00;99.90
21047;DHT22;10682;50.874;3.656;2024-03-02T08:01:51;7.00;99.90
21047;DHT22;10682;50.874;3.656;2024-03-02T08:04:19;7.10;99.90
21047;DHT22;10682;50.874;3.656;2024-03-02T08:06:46;7.10;99.90
21047;DHT22;10682;50.874;3.656;2024-03-02T08:09:13;7.40;99.90
21047;DHT22;10682;50.874;3.656;2024-03-02T08:11:40;7.70;99.90
21047;DHT22;10682;50.874;3.656;2024-03-02T08:14:08;8.10;99.90
21047;DHT22;10682;50.874;3.656;2024-03-02T08:16:35;8.40;99.90
21047;DHT22;10682;50.874;3.656;2024-03-02T08:19:02;8.40;99.90
21047;DHT22;10682;50.874;3.656;2024-03-02T08:21:30;8.60;99.90
21047;DHT22;10682;50.874;3.656;2024-03-02T08:23:58;9.00;99.90
21047;DHT22;10682;50.874;3.656;2024-03-02T08:26:26;9.30;99.90
21047;DHT22;10682;50.874;3.656;2024-03-02T08:28:56;9.50;99.90
21047;DHT22;10682;50.874;3.656;2024-03-02T08:31:23;9.70;99.90
21047;DHT22;10682;50.874;3.656;2024-03-02T08:33:50;10.10;99.90
21047;DHT22;10682;50.874;3.656;2024-03-02T08:36:17;9.90;99.90
21047;DHT22;10682;50.874;3.656;2024-03-02T08:38:44;9.40;99.90
21047;DHT22;10682;50.874;3.656;2024-03-02T08:41:12;9.30;99.90
21047;DHT22;10682;50.874;3.656;2024-03-02T08:43:41;9.90;99.90
21047;DHT22;10682;50.874;3.656;2024-03-02T08:46:09;10.50;99.90
21047;DHT22;10682;50.874;3.656;2024-03-02T08:48:36;10.70;99.90
21047;DHT22;10682;50.874;3.656;2024-03-02T08:51:03;10.40;99.90
21047;DHT22;10682;50.874;3.656;2024-03-02T08:53:33;10.10;99.90
21047;DHT22;10682;50.874;3.656;2024-03-02T08:56:00;10.10;99.90
21047;DHT22;10682;50.874;3.656;2024-03-02T08:58:29;10.40;99.90
21047;DHT22;10682;50.874;3.656;2024-03-02T09:00:56;10.70;99.90
21047;DHT22;10682;50.874;3.656;2024-03-02T09:03:23;10.80;99.90
21047;DHT22;10682;50.874;3.656;2024-03-02T09:05:50;11.00;99.90
21047;DHT22;10682;50.874;3.656;2024-03-02T09:08:17;11.00;99.90
21047;DHT22;10682;50.874;3.656;2024-03-02T09:10:44;10.80;99.90
21047;DHT22;10682;50.874;3.656;2024-03-02T09:13:11;10.10;99.90
21047;DHT22;10682;50.874;3.656;2024-03-02T09:15:38;9.60;99.90
21047;DHT22;10682;50.874;3.656;2024-03-02T09:18:06;9.20;99.90
21047;DHT22;10682;50.874;3.656;2024-03-02T09:20:33;9.20;99.90
21047;DHT22;10682;50.874;3.656;2024-03-02T09:23:01;9.10;99.90
21047;DHT22;10682;50.874;3.656;2024-03-02T09:25:28;9.00;99.90
21047;DHT22;10682;50.874;3.656;2024-03-02T09:27:55;9.00;99.90
21047;DHT22;10682;50.874;3.656;2024-03-02T09:30:22;9.40;99.90
21047;DHT22;10682;50.874;3.656;2024-03-02T09:32:49;10.00;99.90
21047;DHT22;10682;50.874;3.656;2024-03-02T09:35:16;10.70;99.90
21047;DHT22;10682;50.874;3.656;2024-03-02T09:37:44;11.20;99.90
21047;DHT22;10682;50.874;3.656;2024-03-02T09:40:13;11.60;99.90
21047;DHT22;10682;50.874;3.656;2024-03-02T09:42:40;11.40;99.90
21047;DHT22;10682;50.874;3.656;2024-03-02T09:45:09;11.10;99.90
21047;DHT22;10682;50.874;3.656;2024-03-02T09:47:37;11.00;99.90
21047;DHT22;10682;50.874;3.656;2024-03-02T09:50:04;11.00;99.90
21047;DHT22;10682;50.874;3.656;2024-03-02T09:52:32;11.10;99.90
21047;DHT22;10682;50.874;3.656;2024-03-02T09:54:59;11.00;99.90
21047;DHT22;10682;50.874;3.656;2024-03-02T09:57:27;10.80;99.90
21047;DHT22;10682;50.874;3.656;2024-03-02T09:59:54;10.50;99.90
21047;DHT22;10682;50.874;3.656;2024-03-02T10:02:21;10.50;99.90
21047;DHT22;10682;50.874;3.656;2024-03-02T10:04:49;10.50;99.90
21047;DHT22;10682;50.874;3.656;2024-03-02T10:07:17;10.40;99.90
21047;DHT22;10682;50.874;3.656;2024-03-02T10:09:47;10.40;99.90
21047;DHT22;10682;50.874;3.656;2024-03-02T10:12:16;10.40;99.90
21047;DHT22;10682;50.874;3.656;2024-03-02T10:14:44;10.40;99.90
21047;DHT22;10682;50.874;3.656;2024-03-02T10:17:13;10.40;99.90
21047;DHT22;10682;50.874;3.656;2024-03-02T10:19:42;10.30;99.90
21047;DHT22;10682;50.874;3.656;2024-03-02T10:22:10;10.30;99.90
21047;DHT22;10682;50.874;3.656;2024-03-02T10:24:44;10.30;99.90
21047;DHT22;10682;50.874;3.656;2024-03-02T10:27:17;10.20;99.90
21047;DHT22;10682;50.874;3.656;2024-03-02T10:29:48;10.20;99.90
21047;DHT22;10682;50.874;3.656;2024-03-02T10:32:16;10.30;99.90
21047;DHT22;10682;50.874;3.656;2024-03-02T10:34:45;10.30;99.90
21047;DHT22;10682;50.874;3.656;2024-03-02T10:37:16;10.40;99.90
21047;DHT22;10682;50.874;3.656;2024-03-02T10:39:47;10.40;99.90
21047;DHT22;10682;50.874;3.656;2024-03-02T10:42:14;10.30;99.90
21047;DHT22;10682;50.874;3.656;2024-03-02T10:44:42;10.30;99.90
21047;DHT22;10682;50.874;3.656;2024-03-02T10:47:12;10.40;99.90
21047;DHT22;10682;50.874;3.656;2024-03-02T10:49:42;10.30;99.90
21047;DHT22;10682;50.874;3.656;2024-03-02T10:52:10;10.40;99.90
21047;DHT22;10682;50.874;3.656;2024-03-02T10:54:37;10.50;99.90
21047;DHT22;10682;50.874;3.656;2024-03-02T10:57:07;10.70;99.90
21047;DHT22;10682;50.874;3.656;2024-03-02T10:59:56;11.00;99.90
21047;DHT22;10682;50.874;3.656;2024-03-02T11:02:24;11.20;99.90
21047;DHT22;10682;50.874;3.656;2024-03-02T11:04:55;11.40;99.90
21047;DHT22;10682;50.874;3.656;2024-03-02T11:07:23;11.40;99.90
21047;DHT22;10682;50.874;3.656;2024-03-02T11:09:57;11.30;99.90
21047;DHT22;10682;50.874;3.656;2024-03-02T11:12:31;11.30;99.90
21047;DHT22;10682;50.874;3.656;2024-03-02T11:15:04;11.40;99.90
21047;DHT22;10682;50.874;3.656;2024-03-02T11:17:40;11.60;99.90
21047;DHT22;10682;50.874;3.656;2024-03-02T11:20:08;11.60;99.90
21047;DHT22;10682;50.874;3.656;2024-03-02T11:22:36;11.40;99.90
21047;DHT22;10682;50.874;3.656;2024-03-02T11:25:04;11.30;99.90
21047;DHT22;10682;50.874;3.656;2024-03-02T11:33:02;11.30;99.90
21047;DHT22;10682;50.874;3.656;2024-03-02T11:35:43;11.30;99.90
21047;DHT22;10682;50.874;3.656;2024-03-02T11:38:15;11.20;99.90
21047;DHT22;10682;50.874;3.656;2024-03-02T11:40:42;11.20;99.90
21047;DHT22;10682;50.874;3.656;2024-03-02T11:43:11;11.30;99.90
21047;DHT22;10682;50.874;3.656;2024-03-02T11:45:38;11.10;99.90
21047;DHT22;10682;50.874;3.656;2024-03-02T11:48:14;11.00;99.90
21047;DHT22;10682;50.874;3.656;2024-03-02T11:50:51;11.00;99.90
21047;DHT22;10682;50.874;3.656;2024-03-02T11:53:20;10.90;99.90
21047;DHT22;10682;50.874;3.656;2024-03-02T11:55:47;10.80;99.90
21047;DHT22;10682;50.874;3.656;2024-03-02T11:58:16;10.80;99.90
21047;DHT22;10682;50.874;3.656;2024-03-02T12:00:44;10.80;99.90
21047;DHT22;10682;50.874;3.656;2024-03-02T12:03:15;10.80;99.90
21047;DHT22;10682;50.874;3.656;2024-03-02T12:05:42;10.80;99.90
21047;DHT22;10682;50.874;3.656;2024-03-02T12:08:11;10.70;99.90
21047;DHT22;10682;50.874;3.656;2024-03-02T12:10:39;10.70;99.90
21047;DHT22;10682;50.874;3.656;2024-03-02T12:13:07;10.70;99.90
21047;DHT22;10682;50.874;3.656;2024-03-02T12:15:38;10.80;99.90
21047;DHT22;10682;50.874;3.656;2024-03-02T12:18:06;10.70;99.90
21047;DHT22;10682;50.874;3.656;2024-03-02T12:20:34;10.70;99.90
21047;DHT22;10682;50.874;3.656;2024-03-02T12:23:02;10.60;99.90
21047;DHT22;10682;50.874;3.656;2024-03-02T12:25:32;10.60;99.90
21047;DHT22;10682;50.874;3.656;2024-03-02T12:28:04;10.50;99.90
21047;DHT22;10682;50.874;3.656;2024-03-02T12:33:52;10.40;99.90
21047;DHT22;10682;50.874;3.656;2024-03-02T12:36:22;10.40;99.90
21047;DHT22;10682;50.874;3.656;2024-03-02T12:38:52;10.40;99.90
21047;DHT22;10682;50.874;3.656;2024-03-02T12:41:21;10.40;99.90
21047;DHT22;10682;50.874;3.656;2024-03-02T12:43:48;10.40;99.90
21047;DHT22;10682;50.874;3.656;2024-03-02T12:46:15;10.30;99.90
21047;DHT22;10682;50.874;3.656;2024-03-02T12:48:43;10.30;99.90
21047;DHT22;10682;50.874;3.656;2024-03-02T12:51:10;10.30;99.90
21047;DHT22;10682;50.874;3.656;2024-03-02T12:53:37;10.20;99.90
21047;DHT22;10682;50.874;3.656;2024-03-02T12:56:04;10.20;99.90
21047;DHT22;10682;50.874;3.656;2024-03-02T12:58:39;10.20;99.90
21047;DHT22;10682;50.874;3.656;2024-03-02T13:01:08;10.20;99.90
21047;DHT22;10682;50.874;3.656;2024-03-02T13:03:39;10.20;99.90
21047;DHT22;10682;50.874;3.656;2024-03-02T13:06:07;10.30;99.90
21047;DHT22;10682;50.874;3.656;2024-03-02T13:08:35;10.30;99.90
21047;DHT22;10682;50.874;3.656;2024-03-02T13:11:03;10.20;99.90
21047;DHT22;10682;50.874;3.656;2024-03-02T13:13:33;10.20;99.90
21047;DHT22;10682;50.874;3.656;2024-03-02T13:16:01;10.20;99.90
21047;DHT22;10682;50.874;3.656;2024-03-02T13:18:31;10.20;99.90
21047;DHT22;10682;50.874;3.656;2024-03-02T13:21:00;10.20;99.90
21047;DHT22;10682;50.874;3.656;2024-03-02T13:23:27;10.30;99.90
21047;DHT22;10682;50.874;3.656;2024-03-02T13:25:58;10.40;99.90
21047;DHT22;10682;50.874;3.656;2024-03-02T13:28:25;10.60;99.90
21047;DHT22;10682;50.874;3.656;2024-03-02T13:30:52;10.70;99.90
21047;DHT22;10682;50.874;3.656;2024-03-02T13:33:20;10.80;99.90
21047;DHT22;10682;50.874;3.656;2024-03-02T13:35:50;10.80;99.90
21047;DHT22;10682;50.874;3.656;2024-03-02T13:38:18;10.80;99.90
21047;DHT22;10682;50.874;3.656;2024-03-02T13:40:47;10.90;99.90
21047;DHT22;10682;50.874;3.656;2024-03-02T13:43:18;10.90;99.90
21047;DHT22;10682;50.874;3.656;2024-03-02T13:45:46;10.90;99.90
21047;DHT22;10682;50.874;3.656;2024-03-02T13:48:14;10.80;99.90
21047;DHT22;10682;50.874;3.656;2024-03-02T13:50:41;10.80;99.90
21047;DHT22;10682;50.874;3.656;2024-03-02T13:53:09;10.90;99.90
21047;DHT22;10682;50.874;3.656;2024-03-02T13:55:37;11.00;99.90
21047;DHT22;10682;50.874;3.656;2024-03-02T13:58:04;11.10;99.90
21047;DHT22;10682;50.874;3.656;2024-03-02T14:00:31;11.10;99.90
21047;DHT22;10682;50.874;3.656;2024-03-02T14:02:58;11.10;99.90
21047;DHT22;10682;50.874;3.656;2024-03-02T14:05:25;11.00;99.90
21047;DHT22;10682;50.874;3.656;2024-03-02T14:07:52;11.00;99.90
21047;DHT22;10682;50.874;3.656;2024-03-02T14:10:20;11.00;99.90
21047;DHT22;10682;50.874;3.656;2024-03-02T14:12:49;10.90;99.90
21047;DHT22;10682;50.874;3.656;2024-03-02T14:15:16;10.90;99.90
21047;DHT22;10682;50.874;3.656;2024-03-02T14:17:46;10.90;99.90
21047;DHT22;10682;50.874;3.656;2024-03-02T14:20:13;10.90;99.90
21047;DHT22;10682;50.874;3.656;2024-03-02T14:22:41;10.80;99.90
21047;DHT22;10682;50.874;3.656;2024-03-02T14:25:08;10.80;99.90
21047;DHT22;10682;50.874;3.656;2024-03-02T14:27:35;10.80;99.90
21047;DHT22;10682;50.874;3.656;2024-03-02T14:30:23;10.80;99.90
21047;DHT22;10682;50.874;3.656;2024-03-02T14:32:50;10.80;99.90
21047;DHT22;10682;50.874;3.656;2024-03-02T14:35:17;10.80;99.90
21047;DHT22;10682;50.874;3.656;2024-03-02T14:37:45;10.80;99.90
21047;DHT22;10682;50.874;3.656;2024-03-02T14:40:12;10.80;99.90
21047;DHT22;10682;50.874;3.656;2024-03-02T14:42:40;10.80;99.90
21047;DHT22;10682;50.874;3.656;2024-03-02T14:45:09;10.80;99.90
21047;DHT22;10682;50.874;3.656;2024-03-02T14:47:36;10.90;99.90
21047;DHT22;10682;50.874;3.656;2024-03-02T14:50:03;10.90;99.90
21047;DHT22;10682;50.874;3.656;2024-03-02T14:52:33;10.90;99.90
21047;DHT22;10682;50.874;3.656;2024-03-02T14:55:00;10.90;99.90
21047;DHT22;10682;50.874;3.656;2024-03-02T14:57:28;11.00;99.90
21047;DHT22;10682;50.874;3.656;2024-03-02T14:59:55;11.10;99.90
21047;DHT22;10682;50.874;3.656;2024-03-02T15:02:22;11.10;99.90
21047;DHT22;10682;50.874;3.656;2024-03-02T15:04:49;11.00;99.90
21047;DHT22;10682;50.874;3.656;2024-03-02T15:07:17;11.10;99.90
21047;DHT22;10682;50.874;3.656;2024-03-02T15:09:44;11.00;99.90
21047;DHT22;10682;50.874;3.656;2024-03-02T15:12:11;11.00;99.90
21047;DHT22;10682;50.874;3.656;2024-03-02T15:14:41;10.90;99.90
21047;DHT22;10682;50.874;3.656;2024-03-02T15:17:15;10.90;99.90
21047;DHT22;10682;50.874;3.656;2024-03-02T15:19:43;10.90;99.90
21047;DHT22;10682;50.874;3.656;2024-03-02T15:22:11;11.00;99.90
21047;DHT22;10682;50.874;3.656;2024-03-02T15:24:38;11.00;99.90
21047;DHT22;10682;50.874;3.656;2024-03-02T15:27:06;11.00;99.90
21047;DHT22;10682;50.874;3.656;2024-03-02T15:29:35;11.10;99.90
21047;DHT22;10682;50.874;3.656;2024-03-02T15:32:03;11.20;99.90
21047;DHT22;10682;50.874;3.656;2024-03-02T15:34:33;11.20;99.90
21047;DHT22;10682;50.874;3.656;2024-03-02T15:37:01;11.20;99.90
21047;DHT22;10682;50.874;3.656;2024-03-02T15:39:30;11.20;99.90
21047;DHT22;10682;50.874;3.656;2024-03-02T15:41:58;11.30;99.90
21047;DHT22;10682;50.874;3.656;2024-03-02T15:44:25;11.20;99.90
21047;DHT22;10682;50.874;3.656;2024-03-02T15:46:52;11.20;99.90
21047;DHT22;10682;50.874;3.656;2024-03-02T15:49:19;11.20;99.90
21047;DHT22;10682;50.874;3.656;2024-03-02T15:51:47;11.30;99.90
21047;DHT22;10682;50.874;3.656;2024-03-02T15:54:14;11.30;99.90
21047;DHT22;10682;50.874;3.656;2024-03-02T15:56:41;11.20;99.90
21047;DHT22;10682;50.874;3.656;2024-03-02T15:59:09;11.30;99.90
21047;DHT22;10682;50.874;3.656;2024-03-02T16:01:36;11.20;99.90